createdAt,value
2022-07-29T00:01:04.128Z,23.53
2022-07-29T00:03:31.108Z,23.58
2022-07-29T00:05:57.886Z,23.46
2022-07-29T00:08:24.529Z,23.55
2022-07-29T00:10:52.079Z,23.44
2022-07-29T00:13:18.790Z,23.48
2022-07-29T00:15:59.082Z,23.52
2022-07-29T00:18:31.778Z,23.44
2022-07-29T00:20:58.444Z,23.46
2022-07-29T00:23:25.156Z,23.50
2022-07-29T00:25:51.909Z,23.27
2022-07-29T00:28:18.677Z,23.45
2022-07-29T00:30:45.411Z,23.61
2022-07-29T00:33:12.168Z,23.57
2022-07-29T00:35:44.613Z,23.49
2022-07-29T00:38:16.289Z,23.54
2022-07-29T00:40:44.633Z,23.69
2022-07-29T00:43:12.762Z,23.64
2022-07-29T00:45:39.682Z,23.59
2022-07-29T00:48:07.629Z,23.65
2022-07-29T00:50:34.470Z,23.55
2022-07-29T00:53:02.057Z,23.33
2022-07-29T00:55:29.871Z,23.35
2022-07-29T00:57:58.046Z,23.44
2022-07-29T01:00:27.149Z,23.56
2022-07-29T01:02:53.983Z,23.48
2022-07-29T01:05:23.417Z,23.46
2022-07-29T01:07:53.614Z,23.49
2022-07-29T01:10:22.191Z,23.65
2022-07-29T01:12:51.286Z,23.46
2022-07-29T01:15:18.385Z,23.59
2022-07-29T01:18:18.176Z,23.62
2022-07-29T01:21:18.435Z,23.59
2022-07-29T01:24:00.169Z,23.56
2022-07-29T01:26:43.801Z,23.60
2022-07-29T01:29:38.573Z,23.53
2022-07-29T01:32:22.535Z,23.47
2022-07-29T01:35:10.011Z,23.44
2022-07-29T01:37:44.021Z,23.32
2022-07-29T01:40:25.081Z,23.40
2022-07-29T01:42:55.810Z,23.30
2022-07-29T01:45:39.908Z,23.45
2022-07-29T01:48:22.574Z,23.36
2022-07-29T01:50:58.752Z,23.22
2022-07-29T01:53:36.418Z,23.31
2022-07-29T01:56:06.075Z,23.18
2022-07-29T01:58:33.933Z,23.17
2022-07-29T02:01:01.645Z,23.05
2022-07-29T02:03:30.304Z,22.99
2022-07-29T02:05:58.523Z,23.05
2022-07-29T02:08:26.242Z,23.06
2022-07-29T02:10:54.672Z,23.00
2022-07-29T02:13:24.510Z,22.93
2022-07-29T02:15:53.010Z,22.77
2022-07-29T02:18:23.696Z,23.01
2022-07-29T02:20:53.845Z,22.95
2022-07-29T02:23:23.765Z,22.84
2022-07-29T02:25:53.836Z,22.70
2022-07-29T02:28:23.803Z,22.76
2022-07-29T02:30:53.437Z,22.68
2022-07-29T02:33:21.957Z,22.72
2022-07-29T02:35:49.805Z,22.70
2022-07-29T02:38:36.161Z,22.61
2022-07-29T02:41:09.694Z,22.50
2022-07-29T02:43:37.234Z,22.70
2022-07-29T02:46:28.006Z,22.63
2022-07-29T02:49:05.330Z,22.57
2022-07-29T02:52:05.925Z,22.70
2022-07-29T02:54:42.074Z,22.47
2022-07-29T02:57:54.549Z,22.61
2022-07-29T03:00:25.608Z,22.47
2022-07-29T03:02:55.468Z,22.40
2022-07-29T03:05:23.620Z,22.25
2022-07-29T03:08:03.869Z,22.48
2022-07-29T03:10:31.435Z,22.31
2022-07-29T03:12:59.219Z,22.21
2022-07-29T03:15:27.085Z,22.43
2022-07-29T03:17:54.811Z,22.36
2022-07-29T03:20:21.989Z,22.34
2022-07-29T03:22:49.259Z,22.42
2022-07-29T03:25:17.713Z,22.50
2022-07-29T03:27:45.360Z,22.46
2022-07-29T03:30:18.117Z,22.44
2022-07-29T03:32:48.831Z,22.39
2022-07-29T03:35:17.539Z,22.40
2022-07-29T03:37:45.418Z,22.49
2022-07-29T03:40:17.581Z,22.46
2022-07-29T03:42:45.762Z,22.41
2022-07-29T03:45:16.546Z,22.49
2022-07-29T03:47:50.856Z,22.40
2022-07-29T03:50:21.330Z,22.42
2022-07-29T03:52:49.059Z,22.22
2022-07-29T03:55:16.664Z,22.37
2022-07-29T03:57:45.576Z,22.46
2022-07-29T04:00:12.992Z,22.36
2022-07-29T04:02:41.212Z,22.36
2022-07-29T04:05:13.724Z,22.39
2022-07-29T04:07:41.387Z,22.41
2022-07-29T04:10:08.926Z,22.61
2022-07-29T04:12:36.207Z,22.60
2022-07-29T04:15:05.037Z,22.66
2022-07-29T04:17:31.963Z,22.64
2022-07-29T04:19:58.938Z,22.77
2022-07-29T04:22:25.680Z,22.73
2022-07-29T04:24:54.101Z,22.70
2022-07-29T04:27:20.825Z,22.87
2022-07-29T04:29:56.765Z,23.01
2022-07-29T04:32:25.241Z,23.18
2022-07-29T04:34:52.245Z,23.25
2022-07-29T04:37:18.970Z,23.30
2022-07-29T04:39:45.671Z,23.52
2022-07-29T04:42:12.392Z,23.59
2022-07-29T04:44:39.999Z,23.67
2022-07-29T04:47:10.216Z,23.73
2022-07-29T04:49:39.513Z,23.86
2022-07-29T04:52:07.012Z,24.13
2022-07-29T04:54:34.181Z,24.23
2022-07-29T04:57:01.001Z,24.09
2022-07-29T04:59:28.129Z,24.30
2022-07-29T05:01:55.020Z,24.35
2022-07-29T05:04:21.771Z,24.52
2022-07-29T05:06:48.777Z,24.58
2022-07-29T05:09:15.767Z,24.53
2022-07-29T05:11:42.486Z,24.80
2022-07-29T05:14:09.255Z,24.85
2022-07-29T05:16:36.213Z,24.93
2022-07-29T05:19:03.010Z,24.79
2022-07-29T05:21:29.651Z,25.05
2022-07-29T05:23:56.373Z,25.16
2022-07-29T05:26:23.308Z,25.44
2022-07-29T05:28:50.182Z,25.21
2022-07-29T05:31:17.069Z,25.63
2022-07-29T05:33:43.836Z,25.64
2022-07-29T05:36:11.260Z,25.96
2022-07-29T05:38:38.419Z,26.35
2022-07-29T05:41:06.309Z,26.66
2022-07-29T05:43:33.846Z,26.98
2022-07-29T05:46:00.704Z,26.79
2022-07-29T05:48:28.201Z,27.25
2022-07-29T05:50:55.784Z,27.93
2022-07-29T05:53:22.985Z,28.34
2022-07-29T05:55:50.592Z,28.71
2022-07-29T05:58:17.610Z,28.90
2022-07-29T06:00:45.406Z,28.91
2022-07-29T06:03:12.527Z,28.98
2022-07-29T06:05:39.268Z,29.21
2022-07-29T06:08:09.237Z,29.41
2022-07-29T06:10:36.629Z,29.81
2022-07-29T06:13:03.535Z,29.82
2022-07-29T06:15:30.266Z,30.16
2022-07-29T06:17:59.269Z,29.99
2022-07-29T06:20:31.445Z,30.19
2022-07-29T06:22:58.669Z,29.93
2022-07-29T06:25:25.395Z,30.25
2022-07-29T06:27:52.117Z,30.39
2022-07-29T06:30:18.992Z,30.60
2022-07-29T06:32:46.015Z,30.75
2022-07-29T06:35:38.808Z,30.93
2022-07-29T06:37:59.855Z,31.10
2022-07-29T06:40:45.722Z,31.22
2022-07-29T06:43:12.484Z,31.20
2022-07-29T06:45:42.444Z,31.13
2022-07-29T06:48:10.371Z,31.23
2022-07-29T06:50:37.167Z,31.06
2022-07-29T06:53:04.475Z,31.23
2022-07-29T06:55:31.240Z,31.38
2022-07-29T06:57:57.971Z,31.62
2022-07-29T07:00:24.770Z,31.68
2022-07-29T07:02:52.858Z,31.80
2022-07-29T07:05:19.594Z,31.81
2022-07-29T07:07:46.225Z,31.68
2022-07-29T07:10:13.061Z,31.92
2022-07-29T07:12:39.905Z,31.88
2022-07-29T07:15:07.247Z,31.89
2022-07-29T07:17:33.933Z,32.15
2022-07-29T07:20:00.641Z,32.19
2022-07-29T07:22:28.297Z,32.18
2022-07-29T07:24:54.985Z,32.16
2022-07-29T07:27:21.656Z,31.96
2022-07-29T07:29:48.354Z,32.16
2022-07-29T07:32:17.239Z,32.37
2022-07-29T07:34:44.541Z,32.35
2022-07-29T07:37:11.424Z,32.52
2022-07-29T07:39:38.064Z,32.78
2022-07-29T07:42:04.812Z,32.84
2022-07-29T07:44:31.498Z,32.95
2022-07-29T07:46:58.274Z,33.15
2022-07-29T07:49:30.755Z,33.25
2022-07-29T07:51:57.818Z,33.25
2022-07-29T07:54:24.515Z,33.03
2022-07-29T07:56:53.065Z,33.02
2022-07-29T07:59:22.271Z,33.13
2022-07-29T08:01:55.668Z,32.73
2022-07-29T08:04:28.036Z,32.81
2022-07-29T08:06:58.726Z,33.15
2022-07-29T08:09:29.805Z,33.35
2022-07-29T08:11:59.370Z,33.21
2022-07-29T08:14:26.251Z,33.18
2022-07-29T08:16:53.008Z,33.03
2022-07-29T08:19:19.714Z,33.17
2022-07-29T08:21:46.486Z,32.95
2022-07-29T08:24:31.626Z,33.02
2022-07-29T08:26:58.317Z,32.68
2022-07-29T08:29:24.980Z,33.15
2022-07-29T08:31:51.871Z,33.29
2022-07-29T08:34:18.721Z,33.45
2022-07-29T08:36:52.728Z,33.44
2022-07-29T08:39:19.381Z,33.37
2022-07-29T08:41:56.774Z,32.85
2022-07-29T08:44:30.373Z,33.20
2022-07-29T08:46:58.041Z,33.24
2022-07-29T08:49:24.986Z,33.21
2022-07-29T08:51:52.442Z,32.05
2022-07-29T08:54:20.049Z,32.05
2022-07-29T08:56:51.096Z,32.43
2022-07-29T08:59:22.007Z,32.74
2022-07-29T09:01:52.264Z,33.16
2022-07-29T09:04:20.618Z,33.07
2022-07-29T09:06:52.880Z,33.16
2022-07-29T09:09:19.738Z,33.42
2022-07-29T09:11:46.468Z,33.65
2022-07-29T09:14:14.730Z,33.77
2022-07-29T09:16:59.735Z,33.76
2022-07-29T09:19:35.924Z,33.85
2022-07-29T09:22:06.104Z,33.86
2022-07-29T09:24:45.210Z,33.91
2022-07-29T09:27:23.636Z,33.73
2022-07-29T09:30:30.320Z,33.46
2022-07-29T09:33:02.255Z,33.75
2022-07-29T09:35:30.575Z,33.80
2022-07-29T09:37:58.109Z,34.08
2022-07-29T09:40:28.052Z,34.28
2022-07-29T09:42:58.536Z,34.51
2022-07-29T09:45:33.678Z,34.43
2022-07-29T09:48:04.160Z,34.33
2022-07-29T09:50:39.912Z,34.26
2022-07-29T09:53:06.976Z,34.46
2022-07-29T09:55:33.634Z,34.67
2022-07-29T09:58:18.527Z,34.54
2022-07-29T10:00:47.240Z,34.99
2022-07-29T10:03:15.544Z,34.88
2022-07-29T10:05:43.181Z,35.05
2022-07-29T10:08:11.154Z,35.21
2022-07-29T10:10:42.755Z,35.19
2022-07-29T10:13:16.645Z,35.48
2022-07-29T10:15:46.345Z,35.15
2022-07-29T10:18:14.978Z,35.07
2022-07-29T10:20:41.981Z,35.20
2022-07-29T10:23:10.286Z,35.07
2022-07-29T10:25:37.237Z,34.84
2022-07-29T10:28:04.105Z,35.04
2022-07-29T10:30:32.032Z,35.20
2022-07-29T10:33:07.970Z,35.17
2022-07-29T10:35:41.171Z,35.26
2022-07-29T10:38:30.434Z,34.84
2022-07-29T10:41:32.132Z,35.25
2022-07-29T10:44:23.868Z,35.20
2022-07-29T10:46:51.690Z,35.49
2022-07-29T10:49:25.194Z,35.62
2022-07-29T10:52:01.558Z,35.88
2022-07-29T10:54:34.782Z,36.00
2022-07-29T10:57:54.242Z,36.03
2022-07-29T11:00:30.170Z,36.34
2022-07-29T11:02:59.414Z,36.39
2022-07-29T11:08:26.026Z,36.27
2022-07-29T11:11:20.288Z,36.18
2022-07-29T11:13:53.362Z,36.35
2022-07-29T11:16:25.141Z,36.44
2022-07-29T11:19:21.517Z,36.41
2022-07-29T11:21:58.289Z,36.44
2022-07-29T11:24:32.225Z,36.73
2022-07-29T11:27:17.995Z,36.76
2022-07-29T11:30:01.296Z,36.63
2022-07-29T11:32:39.982Z,36.42
2022-07-29T11:35:17.313Z,36.79
2022-07-29T11:37:52.566Z,37.00
2022-07-29T11:40:24.913Z,37.05
2022-07-29T11:42:52.509Z,36.93
2022-07-29T11:45:43.336Z,37.17
2022-07-29T11:48:29.147Z,36.94
2022-07-29T11:50:59.580Z,36.79
2022-07-29T11:53:29.269Z,36.67
2022-07-29T11:56:00.380Z,36.78
2022-07-29T11:58:28.467Z,37.02
2022-07-29T12:00:56.264Z,37.44
2022-07-29T12:03:33.397Z,37.44
2022-07-29T12:06:02.823Z,36.73
2022-07-29T12:08:30.663Z,36.45
2022-07-29T12:10:57.463Z,36.27
2022-07-29T12:13:36.997Z,36.66
2022-07-29T12:16:04.273Z,36.49
2022-07-29T12:18:30.993Z,36.51
2022-07-29T12:21:03.350Z,36.57
2022-07-29T12:23:34.291Z,36.30
2022-07-29T12:26:05.355Z,36.86
2022-07-29T12:28:39.482Z,37.05
2022-07-29T12:31:06.621Z,36.76
2022-07-29T12:33:36.039Z,36.67
2022-07-29T12:36:07.043Z,36.41
2022-07-29T12:38:36.027Z,36.29
2022-07-29T12:41:04.729Z,36.35
2022-07-29T12:43:32.308Z,36.29
2022-07-29T12:46:13.587Z,36.26
2022-07-29T12:48:43.493Z,36.25
2022-07-29T12:51:11.163Z,36.04
2022-07-29T12:53:38.276Z,35.98
2022-07-29T12:56:20.682Z,35.81
2022-07-29T12:58:51.151Z,35.71
2022-07-29T13:01:21.166Z,35.71
2022-07-29T13:04:03.995Z,35.62
2022-07-29T13:06:46.064Z,35.46
2022-07-29T13:09:23.524Z,35.52
2022-07-29T13:11:54.608Z,35.42
2022-07-29T13:14:51.211Z,35.17
2022-07-29T13:17:28.446Z,34.87
2022-07-29T13:20:15.313Z,35.09
2022-07-29T13:22:43.423Z,35.11
2022-07-29T13:25:10.699Z,35.12
2022-07-29T13:27:39.441Z,34.77
2022-07-29T13:30:09.950Z,34.73
2022-07-29T13:32:39.942Z,34.70
2022-07-29T13:35:09.057Z,34.32
2022-07-29T13:37:39.478Z,34.24
2022-07-29T13:40:08.379Z,34.21
2022-07-29T13:42:35.300Z,34.36
2022-07-29T13:45:03.070Z,34.10
2022-07-29T13:47:32.099Z,34.21
2022-07-29T13:50:00.977Z,34.08
2022-07-29T13:52:27.943Z,34.10
2022-07-29T13:54:54.582Z,33.98
2022-07-29T13:57:21.254Z,34.01
2022-07-29T13:59:52.011Z,33.75
2022-07-29T14:02:20.872Z,33.86
2022-07-29T14:04:47.747Z,34.01
2022-07-29T14:07:16.368Z,34.01
2022-07-29T14:09:43.562Z,33.92
2022-07-29T14:12:10.781Z,34.12
2022-07-29T14:14:37.795Z,34.09
2022-07-29T14:17:07.357Z,34.01
2022-07-29T14:19:36.873Z,34.08
2022-07-29T14:22:08.682Z,34.06
2022-07-29T14:24:37.802Z,34.02
2022-07-29T14:27:09.119Z,33.85
2022-07-29T14:29:38.085Z,33.76
2022-07-29T14:32:10.171Z,33.91
2022-07-29T14:34:38.275Z,33.84
2022-07-29T14:37:08.369Z,33.72
2022-07-29T14:39:42.516Z,33.66
2022-07-29T14:42:12.872Z,33.76
2022-07-29T14:44:41.372Z,33.64
2022-07-29T14:47:08.697Z,33.42
2022-07-29T14:49:36.167Z,33.35
2022-07-29T14:52:03.543Z,33.42
2022-07-29T14:54:30.272Z,33.30
2022-07-29T14:56:58.434Z,33.35
2022-07-29T14:59:26.259Z,33.35
2022-07-29T15:01:53.331Z,33.42
2022-07-29T15:04:20.357Z,33.27
2022-07-29T15:06:49.261Z,33.30
2022-07-29T15:09:16.012Z,33.25
2022-07-29T15:11:42.680Z,33.16
2022-07-29T15:14:09.382Z,33.08
2022-07-29T15:16:43.558Z,33.18
2022-07-29T15:19:11.197Z,33.09
2022-07-29T15:21:48.097Z,32.97
2022-07-29T15:24:17.407Z,33.08
2022-07-29T15:26:44.597Z,33.07
2022-07-29T15:29:11.425Z,32.99
2022-07-29T15:31:38.275Z,32.95
2022-07-29T15:34:05.949Z,32.81
2022-07-29T15:36:51.543Z,32.69
2022-07-29T15:39:20.588Z,32.75
2022-07-29T15:41:47.469Z,32.66
2022-07-29T15:44:14.140Z,32.61
2022-07-29T15:47:00.574Z,32.67
2022-07-29T15:49:47.402Z,32.69
2022-07-29T15:52:18.664Z,32.61
2022-07-29T15:54:46.003Z,32.34
2022-07-29T15:57:13.385Z,32.54
2022-07-29T15:59:40.044Z,32.54
2022-07-29T16:02:07.099Z,32.41
2022-07-29T16:04:33.996Z,32.37
2022-07-29T16:07:00.971Z,32.24
2022-07-29T16:09:55.846Z,32.35
2022-07-29T16:12:22.546Z,32.33
2022-07-29T16:14:51.418Z,32.49
2022-07-29T16:17:18.719Z,32.27
2022-07-29T16:19:45.724Z,32.27
2022-07-29T16:22:13.083Z,32.17
2022-07-29T16:24:39.770Z,32.07
2022-07-29T16:27:06.760Z,32.01
2022-07-29T16:29:33.597Z,31.98
2022-07-29T16:32:01.086Z,31.79
2022-07-29T16:34:27.795Z,31.69
2022-07-29T16:36:54.499Z,31.65
2022-07-29T16:39:21.126Z,31.63
2022-07-29T16:41:47.960Z,31.63
2022-07-29T16:44:16.022Z,31.54
2022-07-29T16:46:44.852Z,31.56
2022-07-29T16:49:11.763Z,31.25
2022-07-29T16:51:45.779Z,31.25
2022-07-29T16:54:12.426Z,31.22
2022-07-29T16:56:39.456Z,31.18
2022-07-29T16:59:06.189Z,31.08
2022-07-29T17:01:32.887Z,30.96
2022-07-29T17:04:08.731Z,30.95
2022-07-29T17:06:40.360Z,31.09
2022-07-29T17:09:09.352Z,31.00
2022-07-29T17:11:52.453Z,30.92
2022-07-29T17:14:23.304Z,30.80
2022-07-29T17:17:01.074Z,30.66
2022-07-29T17:19:33.880Z,30.64
2022-07-29T17:22:10.444Z,30.70
2022-07-29T17:24:40.878Z,30.63
2022-07-29T17:27:08.629Z,30.48
2022-07-29T17:29:35.402Z,30.43
2022-07-29T17:32:02.213Z,30.36
2022-07-29T17:34:28.913Z,30.24
2022-07-29T17:36:55.951Z,30.27
2022-07-29T17:39:22.940Z,30.27
2022-07-29T17:41:49.717Z,30.18
2022-07-29T17:44:16.359Z,30.08
2022-07-29T17:46:43.161Z,29.93
2022-07-29T17:49:11.561Z,30.02
2022-07-29T17:51:39.824Z,29.79
2022-07-29T17:54:06.535Z,29.86
2022-07-29T17:56:33.508Z,29.62
2022-07-29T17:59:01.694Z,29.56
2022-07-29T18:01:28.948Z,29.82
2022-07-29T18:03:59.991Z,29.60
2022-07-29T18:06:28.261Z,29.65
2022-07-29T18:08:55.771Z,29.42
2022-07-29T18:11:24.918Z,29.51
2022-07-29T18:13:53.889Z,29.31
2022-07-29T18:16:20.620Z,29.42
2022-07-29T18:18:50.349Z,29.13
2022-07-29T18:21:17.118Z,29.20
2022-07-29T18:24:04.000Z,29.18
2022-07-29T18:26:30.718Z,29.16
2022-07-29T18:28:57.551Z,29.14
2022-07-29T18:31:24.388Z,28.92
2022-07-29T18:33:51.167Z,28.86
2022-07-29T18:36:18.135Z,28.78
2022-07-29T18:38:44.794Z,28.76
2022-07-29T18:41:11.606Z,28.77
2022-07-29T18:43:38.302Z,28.75
2022-07-29T18:46:06.680Z,28.60
2022-07-29T18:48:34.358Z,28.50
2022-07-29T18:51:01.847Z,28.50
2022-07-29T18:53:28.537Z,28.48
2022-07-29T18:56:00.164Z,28.36
2022-07-29T18:58:27.221Z,28.35
2022-07-29T19:00:53.888Z,28.40
2022-07-29T19:03:20.547Z,28.33
2022-07-29T19:05:47.397Z,28.45
2022-07-29T19:08:16.671Z,28.36
2022-07-29T19:10:43.520Z,28.09
2022-07-29T19:13:10.244Z,28.20
2022-07-29T19:15:40.215Z,28.17
2022-07-29T19:18:07.255Z,28.04
2022-07-29T19:20:34.210Z,28.20
2022-07-29T19:23:00.918Z,27.89
2022-07-29T19:25:27.561Z,27.90
2022-07-29T19:27:54.296Z,28.06
2022-07-29T19:30:21.161Z,27.92
2022-07-29T19:32:47.908Z,27.79
2022-07-29T19:35:25.392Z,27.77
2022-07-29T19:37:52.553Z,27.84
2022-07-29T19:40:20.153Z,27.93
2022-07-29T19:42:48.343Z,27.79
2022-07-29T19:45:15.061Z,27.82
2022-07-29T19:47:41.738Z,27.76
2022-07-29T19:50:09.252Z,27.88
2022-07-29T19:52:37.259Z,27.83
2022-07-29T19:55:07.907Z,27.64
2022-07-29T19:57:40.550Z,27.80
2022-07-29T20:00:11.428Z,27.64
2022-07-29T20:02:39.437Z,27.72
2022-07-29T20:05:06.843Z,27.52
2022-07-29T20:07:34.021Z,27.58
2022-07-29T20:10:00.777Z,27.51
2022-07-29T20:12:27.469Z,27.25
2022-07-29T20:14:54.246Z,27.34
2022-07-29T20:17:22.441Z,27.38
2022-07-29T20:19:50.089Z,27.34
2022-07-29T20:22:21.117Z,27.15
2022-07-29T20:24:48.300Z,27.11
2022-07-29T20:27:14.998Z,27.14
2022-07-29T20:29:41.933Z,27.11
2022-07-29T20:32:08.663Z,27.22
2022-07-29T20:34:35.513Z,27.26
2022-07-29T20:37:02.801Z,27.20
2022-07-29T20:39:29.698Z,26.98
2022-07-29T20:41:56.486Z,26.99
2022-07-29T20:44:24.436Z,27.09
2022-07-29T20:46:51.314Z,26.98
2022-07-29T20:49:18.117Z,27.05
2022-07-29T20:51:45.051Z,27.05
2022-07-29T20:54:12.602Z,26.93
2022-07-29T20:56:39.901Z,27.07
2022-07-29T20:59:06.617Z,26.92
2022-07-29T21:01:33.547Z,26.93
2022-07-29T21:04:01.317Z,26.86
2022-07-29T21:06:27.989Z,26.79
2022-07-29T21:08:57.878Z,26.83
2022-07-29T21:11:43.406Z,26.77
2022-07-29T21:14:22.327Z,26.79
2022-07-29T21:16:50.313Z,26.46
2022-07-29T21:19:17.420Z,26.48
2022-07-29T21:21:44.167Z,26.47
2022-07-29T21:24:12.018Z,26.34
2022-07-29T21:26:39.002Z,26.28
2022-07-29T21:29:05.917Z,26.30
2022-07-29T21:31:32.563Z,26.28
2022-07-29T21:33:59.232Z,26.15
2022-07-29T21:36:47.717Z,26.11
2022-07-29T21:39:12.558Z,26.09
2022-07-29T21:41:39.333Z,26.06
2022-07-29T21:44:05.948Z,25.96
2022-07-29T21:46:32.726Z,26.18
2022-07-29T21:48:59.537Z,25.92
2022-07-29T21:51:26.241Z,25.92
2022-07-29T21:53:53.122Z,25.92
2022-07-29T21:56:19.996Z,25.85
2022-07-29T21:58:49.251Z,25.81
2022-07-29T22:01:16.085Z,25.92
2022-07-29T22:03:42.777Z,25.85
2022-07-29T22:06:11.208Z,25.88
2022-07-29T22:08:45.696Z,25.80
2022-07-29T22:11:13.395Z,25.63
2022-07-29T22:13:40.328Z,25.61
2022-07-29T22:16:07.369Z,25.53
2022-07-29T22:18:34.286Z,25.48
2022-07-29T22:21:01.018Z,25.50
2022-07-29T22:23:27.712Z,25.47
2022-07-29T22:25:54.371Z,25.23
2022-07-29T22:28:21.264Z,25.17
2022-07-29T22:30:48.038Z,25.36
2022-07-29T22:33:17.724Z,25.25
2022-07-29T22:35:45.220Z,25.29
2022-07-29T22:38:15.527Z,25.46
2022-07-29T22:40:42.276Z,25.19
2022-07-29T22:43:10.723Z,25.31
2022-07-29T22:45:37.506Z,25.10
2022-07-29T22:48:05.354Z,25.16
2022-07-29T22:50:32.044Z,24.87
2022-07-29T22:52:58.702Z,24.83
2022-07-29T22:55:25.357Z,24.87
2022-07-29T22:57:52.085Z,24.89
2022-07-29T23:00:19.157Z,24.68
2022-07-29T23:02:45.821Z,24.62
2022-07-29T23:05:15.991Z,24.57
2022-07-29T23:07:43.000Z,24.44
2022-07-29T23:10:09.934Z,24.37
2022-07-29T23:12:36.849Z,24.40
2022-07-29T23:15:04.880Z,24.58
2022-07-29T23:17:32.130Z,24.49
2022-07-29T23:20:08.044Z,24.48
2022-07-29T23:22:36.069Z,24.23
2022-07-29T23:25:03.126Z,24.33
2022-07-29T23:27:30.029Z,24.30
2022-07-29T23:29:56.760Z,24.34
2022-07-29T23:32:23.399Z,24.44
2022-07-29T23:34:50.055Z,24.37
2022-07-29T23:37:16.673Z,24.32
2022-07-29T23:39:43.375Z,24.55
2022-07-29T23:42:09.998Z,24.47
2022-07-29T23:44:36.809Z,24.41
2022-07-29T23:47:03.909Z,24.40
2022-07-29T23:49:31.062Z,24.49
2022-07-29T23:51:57.696Z,24.42
2022-07-29T23:54:24.465Z,24.28
2022-07-29T23:56:51.082Z,24.34
2022-07-29T23:59:17.920Z,24.39
